createdAt,value
2023-10-15T00:01:45.379Z,99.90
2023-10-15T00:03:53.128Z,99.90
2023-10-15T00:06:00.256Z,99.90
2023-10-15T00:08:06.889Z,99.90
2023-10-15T00:10:14.985Z,99.90
2023-10-15T00:12:22.580Z,99.90
2023-10-15T00:14:32.685Z,99.90
2023-10-15T00:16:40.483Z,99.90
2023-10-15T00:18:47.926Z,99.90
2023-10-15T00:21:03.705Z,99.90
2023-10-15T00:23:12.054Z,99.90
2023-10-15T00:25:21.922Z,99.90
2023-10-15T00:27:31.790Z,99.90
2023-10-15T00:29:41.766Z,99.90
2023-10-15T00:31:49.849Z,99.90
2023-10-15T00:33:56.046Z,99.90
2023-10-15T00:36:06.474Z,99.90
2023-10-15T00:38:18.626Z,99.90
2023-10-15T00:40:27.699Z,99.90
2023-10-15T00:42:35.797Z,99.90
2023-10-15T00:44:44.692Z,99.90
2023-10-15T00:46:56.886Z,99.90
2023-10-15T00:49:12.133Z,99.90
2023-10-15T00:51:22.360Z,99.90
2023-10-15T00:53:33.568Z,99.90
2023-10-15T00:55:44.983Z,99.90
2023-10-15T00:57:58.294Z,99.90
2023-10-15T01:00:10.916Z,99.00
2023-10-15T01:02:24.565Z,98.60
2023-10-15T01:04:34.203Z,98.70
2023-10-15T01:06:45.782Z,99.30
2023-10-15T01:08:53.704Z,97.60
2023-10-15T01:11:20.445Z,95.60
2023-10-15T01:13:32.720Z,94.50
2023-10-15T01:15:45.829Z,95.80
2023-10-15T01:18:03.124Z,92.70
2023-10-15T01:20:12.069Z,91.50
2023-10-15T01:22:23.519Z,93.10
2023-10-15T01:24:35.215Z,92.60
2023-10-15T01:26:48.028Z,92.90
2023-10-15T01:28:55.721Z,91.30
2023-10-15T01:31:06.774Z,92.20
2023-10-15T01:33:14.106Z,94.10
2023-10-15T01:35:23.231Z,94.00
2023-10-15T01:37:30.693Z,92.70
2023-10-15T01:39:40.270Z,90.10
2023-10-15T01:41:52.375Z,88.80
2023-10-15T01:44:01.937Z,88.80
2023-10-15T01:46:13.215Z,89.20
2023-10-15T01:48:26.962Z,87.80
2023-10-15T01:50:42.782Z,88.30
2023-10-15T01:52:50.518Z,87.40
2023-10-15T01:55:01.953Z,86.70
2023-10-15T01:57:11.567Z,87.10
2023-10-15T01:59:18.591Z,88.50
2023-10-15T02:01:33.898Z,87.20
2023-10-15T02:03:41.530Z,87.80
2023-10-15T02:05:50.076Z,88.80
2023-10-15T02:07:58.486Z,86.90
2023-10-15T02:10:07.378Z,87.10
2023-10-15T02:12:17.034Z,86.80
2023-10-15T02:14:29.408Z,86.00
2023-10-15T02:16:39.387Z,85.70
2023-10-15T02:18:50.043Z,84.70
2023-10-15T02:21:04.491Z,86.20
2023-10-15T02:23:11.871Z,85.60
2023-10-15T02:25:19.030Z,84.60
2023-10-15T02:27:32.436Z,85.20
2023-10-15T02:29:40.337Z,85.40
2023-10-15T02:31:49.087Z,84.90
2023-10-15T02:33:58.018Z,84.30
2023-10-15T02:36:10.434Z,83.20
2023-10-15T02:38:18.240Z,85.40
2023-10-15T02:40:25.972Z,85.00
2023-10-15T02:42:37.086Z,85.00
2023-10-15T02:44:44.755Z,84.90
2023-10-15T02:46:53.652Z,85.30
2023-10-15T02:49:00.995Z,84.80
2023-10-15T02:51:10.366Z,83.40
2023-10-15T02:53:19.239Z,83.70
2023-10-15T02:55:37.617Z,83.50
2023-10-15T02:57:53.942Z,84.00
2023-10-15T03:00:13.783Z,84.00
2023-10-15T03:02:44.826Z,82.80
2023-10-15T03:04:57.188Z,83.10
2023-10-15T03:07:21.114Z,83.10
2023-10-15T03:09:29.972Z,82.30
2023-10-15T03:11:40.773Z,82.10
2023-10-15T03:13:55.641Z,82.30
2023-10-15T03:16:09.562Z,81.60
2023-10-15T03:18:17.844Z,80.90
2023-10-15T03:20:41.502Z,81.30
2023-10-15T03:22:49.628Z,81.40
2023-10-15T03:24:58.625Z,81.60
2023-10-15T03:27:06.713Z,79.80
2023-10-15T03:29:17.307Z,78.80
2023-10-15T03:31:27.841Z,77.40
2023-10-15T03:33:39.053Z,76.00
2023-10-15T03:35:57.142Z,76.40
2023-10-15T03:38:08.765Z,77.70
2023-10-15T03:40:32.566Z,77.20
2023-10-15T03:42:42.384Z,74.50
2023-10-15T03:44:51.509Z,75.70
2023-10-15T03:47:06.799Z,77.60
2023-10-15T03:49:17.428Z,76.40
2023-10-15T03:51:25.924Z,75.80
2023-10-15T03:53:34.095Z,75.20
2023-10-15T03:55:41.665Z,75.60
2023-10-15T03:57:53.287Z,74.90
2023-10-15T04:00:02.620Z,74.80
2023-10-15T04:02:24.904Z,73.00
2023-10-15T04:04:32.816Z,73.90
2023-10-15T04:06:40.389Z,73.50
2023-10-15T04:11:31.806Z,75.50
2023-10-15T04:13:39.735Z,74.20
2023-10-15T04:15:47.196Z,73.40
2023-10-15T04:17:55.357Z,71.40
2023-10-15T04:20:03.349Z,71.40
2023-10-15T04:22:16.161Z,72.00
2023-10-15T04:24:35.284Z,71.20
2023-10-15T04:26:46.788Z,72.30
2023-10-15T04:28:55.379Z,71.70
2023-10-15T04:31:03.427Z,72.70
2023-10-15T04:33:13.223Z,72.50
2023-10-15T04:35:21.068Z,72.40
2023-10-15T04:37:29.142Z,72.60
2023-10-15T04:39:52.607Z,72.70
2023-10-15T04:42:04.839Z,73.20
2023-10-15T04:44:27.442Z,71.80
2023-10-15T04:46:43.124Z,72.10
2023-10-15T04:48:52.745Z,71.00
2023-10-15T04:51:07.040Z,71.90
2023-10-15T04:53:20.031Z,74.10
2023-10-15T04:55:28.710Z,73.50
2023-10-15T04:57:37.934Z,71.90
2023-10-15T04:59:45.446Z,71.80
2023-10-15T05:01:53.080Z,71.90
2023-10-15T05:04:00.708Z,72.70
2023-10-15T05:06:08.736Z,72.60
2023-10-15T05:08:15.662Z,72.30
2023-10-15T05:10:23.152Z,73.90
2023-10-15T05:12:34.046Z,71.70
2023-10-15T05:14:43.373Z,72.30
2023-10-15T05:16:51.494Z,72.10
2023-10-15T05:19:02.108Z,71.60
2023-10-15T05:21:10.121Z,73.40
2023-10-15T05:23:17.655Z,72.70
2023-10-15T05:25:25.689Z,71.50
2023-10-15T05:27:35.244Z,74.50
2023-10-15T05:29:44.860Z,70.40
2023-10-15T05:31:52.398Z,71.80
2023-10-15T05:33:59.984Z,70.00
2023-10-15T05:36:08.836Z,70.90
2023-10-15T05:38:16.478Z,71.20
2023-10-15T05:40:24.032Z,70.90
2023-10-15T05:42:32.889Z,71.10
2023-10-15T05:44:40.180Z,71.20
2023-10-15T05:46:50.456Z,73.50
2023-10-15T05:48:58.140Z,71.10
2023-10-15T05:51:06.135Z,69.80
2023-10-15T05:53:13.458Z,71.90
2023-10-15T05:55:22.155Z,69.90
2023-10-15T05:57:29.787Z,71.70
2023-10-15T05:59:39.250Z,74.20
2023-10-15T06:01:48.687Z,70.20
2023-10-15T06:03:56.885Z,70.80
2023-10-15T06:06:04.402Z,68.80
2023-10-15T06:08:12.744Z,69.20
2023-10-15T06:10:20.278Z,70.60
2023-10-15T06:12:27.982Z,69.70
2023-10-15T06:14:35.792Z,69.00
2023-10-15T06:16:43.709Z,68.80
2023-10-15T06:18:52.969Z,69.50
2023-10-15T06:21:00.652Z,69.50
2023-10-15T06:23:10.445Z,71.40
2023-10-15T06:25:19.218Z,71.50
2023-10-15T06:27:26.797Z,69.30
2023-10-15T06:29:34.470Z,68.50
2023-10-15T06:31:41.972Z,69.70
2023-10-15T06:33:52.236Z,70.90
2023-10-15T06:35:59.918Z,70.80
2023-10-15T06:38:07.796Z,73.10
2023-10-15T06:40:22.127Z,70.80
2023-10-15T06:42:30.685Z,71.60
2023-10-15T06:44:38.458Z,70.80
2023-10-15T06:46:46.163Z,72.40
2023-10-15T06:48:55.888Z,68.70
2023-10-15T06:51:04.990Z,72.80
2023-10-15T06:53:12.611Z,72.50
2023-10-15T06:55:22.404Z,73.70
2023-10-15T06:57:29.989Z,76.00
2023-10-15T06:59:37.476Z,76.70
2023-10-15T07:01:45.017Z,79.30
2023-10-15T07:03:54.234Z,78.30
2023-10-15T07:06:01.775Z,79.30
2023-10-15T07:08:10.365Z,79.20
2023-10-15T07:10:18.824Z,80.70
2023-10-15T07:12:26.402Z,81.70
2023-10-15T07:14:34.200Z,82.70
2023-10-15T07:16:43.249Z,83.20
2023-10-15T07:18:51.270Z,84.90
2023-10-15T07:21:00.865Z,85.50
2023-10-15T07:23:08.608Z,77.70
2023-10-15T07:25:16.637Z,76.80
2023-10-15T07:27:24.091Z,76.70
2023-10-15T07:29:31.514Z,74.90
2023-10-15T07:31:40.514Z,70.60
2023-10-15T07:33:48.660Z,72.20
2023-10-15T07:35:56.058Z,72.50
2023-10-15T07:38:06.357Z,71.10
2023-10-15T07:40:19.791Z,71.30
2023-10-15T07:42:27.882Z,69.50
2023-10-15T07:44:36.019Z,71.50
2023-10-15T07:46:45.184Z,71.10
2023-10-15T07:48:53.619Z,71.00
2023-10-15T07:51:01.681Z,71.80
2023-10-15T07:53:11.310Z,69.50
2023-10-15T07:55:18.857Z,72.10
2023-10-15T07:57:25.302Z,70.50
2023-10-15T07:59:32.921Z,71.40
2023-10-15T08:01:41.182Z,72.10
2023-10-15T08:03:49.072Z,70.00
2023-10-15T08:05:57.403Z,72.00
2023-10-15T08:08:06.800Z,72.00
2023-10-15T08:10:18.580Z,73.60
2023-10-15T08:12:28.479Z,72.20
2023-10-15T08:14:36.018Z,74.60
2023-10-15T08:16:43.673Z,73.80
2023-10-15T08:18:51.577Z,72.40
2023-10-15T08:20:59.068Z,73.30
2023-10-15T08:23:07.093Z,74.20
2023-10-15T08:25:17.404Z,73.20
2023-10-15T08:27:25.051Z,74.10
2023-10-15T08:29:32.450Z,79.10
2023-10-15T08:31:40.269Z,83.00
2023-10-15T08:33:50.768Z,83.10
2023-10-15T08:35:59.456Z,87.70
2023-10-15T08:38:09.788Z,90.00
2023-10-15T08:40:20.237Z,90.40
2023-10-15T08:42:39.464Z,89.50
2023-10-15T08:44:49.196Z,89.50
2023-10-15T08:46:56.908Z,90.60
2023-10-15T08:49:06.561Z,92.30
2023-10-15T08:51:16.140Z,92.50
2023-10-15T08:53:24.462Z,92.70
2023-10-15T08:55:35.482Z,91.50
2023-10-15T08:57:43.993Z,92.40
2023-10-15T08:59:54.105Z,92.50
2023-10-15T09:02:02.502Z,93.90
2023-10-15T09:04:11.858Z,94.30
2023-10-15T09:06:21.797Z,95.30
2023-10-15T09:08:30.909Z,95.50
2023-10-15T09:10:43.113Z,96.30
2023-10-15T09:12:50.800Z,96.80
2023-10-15T09:14:58.759Z,97.20
2023-10-15T09:17:06.415Z,97.30
2023-10-15T09:19:14.497Z,97.00
2023-10-15T09:21:26.427Z,95.60
2023-10-15T09:23:37.870Z,95.70
2023-10-15T09:25:46.170Z,95.30
2023-10-15T09:27:55.019Z,95.20
2023-10-15T09:30:20.745Z,94.20
2023-10-15T09:32:29.494Z,96.00
2023-10-15T09:34:39.447Z,98.90
2023-10-15T09:36:47.121Z,99.10
2023-10-15T09:38:56.849Z,99.40
2023-10-15T09:41:08.098Z,99.70
2023-10-15T09:43:15.642Z,99.60
2023-10-15T09:45:26.244Z,96.90
2023-10-15T09:47:33.991Z,93.30
2023-10-15T09:49:43.906Z,91.70
2023-10-15T09:51:52.553Z,90.50
2023-10-15T09:54:01.937Z,90.90
2023-10-15T09:56:14.694Z,93.60
2023-10-15T09:58:22.966Z,94.20
2023-10-15T10:00:50.383Z,93.80
2023-10-15T10:03:17.016Z,93.20
2023-10-15T10:05:47.231Z,92.90
2023-10-15T10:08:07.712Z,92.20
2023-10-15T10:10:50.148Z,92.30
2023-10-15T10:13:30.122Z,92.80
2023-10-15T10:15:45.202Z,93.90
2023-10-15T10:17:53.054Z,96.00
2023-10-15T10:19:59.366Z,97.00
2023-10-15T10:22:07.306Z,96.40
2023-10-15T10:24:15.334Z,95.90
2023-10-15T10:26:26.540Z,95.50
2023-10-15T10:28:40.660Z,95.20
2023-10-15T10:30:58.172Z,95.90
2023-10-15T10:33:07.810Z,95.90
2023-10-15T10:35:22.549Z,96.00
2023-10-15T10:37:33.217Z,96.40
2023-10-15T10:39:49.504Z,96.40
2023-10-15T10:42:01.239Z,96.80
2023-10-15T10:44:26.026Z,96.80
2023-10-15T10:46:43.885Z,96.00
2023-10-15T10:49:08.222Z,96.60
2023-10-15T10:51:25.430Z,96.50
2023-10-15T10:53:33.286Z,96.00
2023-10-15T10:55:40.946Z,94.60
2023-10-15T10:57:48.862Z,94.90
2023-10-15T10:59:58.283Z,95.30
2023-10-15T11:02:06.899Z,94.30
2023-10-15T11:04:18.200Z,93.20
2023-10-15T11:06:26.100Z,93.40
2023-10-15T11:08:33.464Z,93.40
2023-10-15T11:10:41.121Z,94.00
2023-10-15T11:12:51.562Z,95.40
2023-10-15T11:15:01.169Z,96.30
2023-10-15T11:17:12.066Z,96.50
2023-10-15T11:19:19.476Z,96.90
2023-10-15T11:21:27.052Z,97.20
2023-10-15T11:23:34.638Z,97.70
2023-10-15T11:25:42.324Z,97.00
2023-10-15T11:27:50.768Z,95.00
2023-10-15T11:30:00.101Z,93.40
2023-10-15T11:32:08.786Z,93.20
2023-10-15T11:34:19.209Z,93.40
2023-10-15T11:36:27.156Z,93.30
2023-10-15T11:38:41.548Z,94.80
2023-10-15T11:40:49.441Z,94.70
2023-10-15T11:42:57.365Z,94.00
2023-10-15T11:45:18.929Z,93.90
2023-10-15T11:47:31.140Z,94.40
2023-10-15T11:49:40.342Z,95.30
2023-10-15T11:51:51.442Z,96.20
2023-10-15T11:54:03.262Z,96.90
2023-10-15T11:56:22.399Z,97.30
2023-10-15T11:58:33.956Z,96.70
2023-10-15T12:00:44.323Z,96.40
2023-10-15T12:02:51.966Z,96.40
2023-10-15T12:05:03.508Z,96.60
2023-10-15T12:07:18.412Z,96.60
2023-10-15T12:09:29.013Z,95.20
2023-10-15T12:11:37.779Z,95.00
2023-10-15T12:13:46.815Z,94.80
2023-10-15T12:15:56.874Z,96.10
2023-10-15T12:18:04.852Z,95.70
2023-10-15T12:20:20.287Z,95.90
2023-10-15T12:22:28.259Z,96.00
2023-10-15T12:24:37.508Z,97.20
2023-10-15T12:26:47.561Z,98.20
2023-10-15T12:28:56.827Z,98.70
2023-10-15T12:31:09.176Z,99.90
2023-10-15T12:33:18.243Z,99.90
2023-10-15T12:35:25.845Z,99.90
2023-10-15T12:37:34.814Z,99.90
2023-10-15T12:39:42.897Z,99.90
2023-10-15T12:41:53.326Z,99.90
2023-10-15T12:44:02.722Z,99.90
2023-10-15T12:46:12.690Z,99.90
2023-10-15T12:48:21.300Z,99.90
2023-10-15T12:50:29.292Z,99.90
2023-10-15T12:52:37.362Z,99.90
2023-10-15T12:54:45.264Z,99.90
2023-10-15T12:56:52.702Z,99.90
2023-10-15T12:59:00.793Z,99.90
2023-10-15T13:01:08.281Z,99.90
2023-10-15T13:03:17.804Z,99.90
2023-10-15T13:05:26.638Z,99.90
2023-10-15T13:07:35.585Z,99.90
2023-10-15T13:09:43.149Z,99.90
2023-10-15T13:11:51.369Z,99.90
2023-10-15T13:13:58.891Z,99.90
2023-10-15T13:16:06.529Z,99.90
2023-10-15T13:18:14.390Z,99.90
2023-10-15T13:20:23.634Z,99.90
2023-10-15T13:22:31.084Z,99.90
2023-10-15T13:24:39.675Z,99.90
2023-10-15T13:26:47.557Z,99.90
2023-10-15T13:28:55.965Z,99.90
2023-10-15T13:31:03.385Z,99.90
2023-10-15T13:33:11.818Z,99.90
2023-10-15T13:35:20.122Z,99.90
2023-10-15T13:37:29.458Z,99.90
2023-10-15T13:39:37.265Z,99.90
2023-10-15T13:41:46.327Z,99.90
2023-10-15T13:43:53.912Z,99.90
2023-10-15T13:46:01.796Z,99.90
2023-10-15T13:48:10.057Z,99.90
2023-10-15T13:50:19.894Z,99.90
2023-10-15T13:52:30.147Z,99.90
2023-10-15T13:54:38.325Z,99.90
2023-10-15T13:56:47.110Z,99.90
2023-10-15T13:58:55.360Z,99.90
2023-10-15T14:01:02.902Z,99.90
2023-10-15T14:03:12.093Z,99.90
2023-10-15T14:05:20.760Z,99.90
2023-10-15T14:07:30.287Z,99.90
2023-10-15T14:09:36.814Z,99.90
2023-10-15T14:11:44.899Z,99.90
2023-10-15T14:13:52.684Z,99.90
2023-10-15T14:16:04.118Z,99.90
2023-10-15T14:18:12.056Z,99.90
2023-10-15T14:20:20.889Z,99.90
2023-10-15T14:22:30.495Z,99.90
2023-10-15T14:24:39.146Z,99.90
2023-10-15T14:26:46.532Z,99.90
2023-10-15T14:28:54.728Z,99.90
2023-10-15T14:31:03.115Z,99.90
2023-10-15T14:33:11.190Z,99.90
2023-10-15T14:35:18.863Z,99.90
2023-10-15T14:37:26.742Z,99.90
2023-10-15T14:39:35.814Z,99.90
2023-10-15T14:41:43.688Z,99.90
2023-10-15T14:43:51.187Z,99.90
2023-10-15T14:45:58.821Z,99.90
2023-10-15T14:48:06.358Z,99.90
2023-10-15T14:50:15.083Z,99.90
2023-10-15T14:52:22.607Z,99.90
2023-10-15T14:54:30.398Z,99.90
2023-10-15T14:56:39.686Z,99.90
2023-10-15T14:58:48.091Z,99.90
2023-10-15T15:00:55.634Z,99.90
2023-10-15T15:03:03.719Z,99.90
2023-10-15T15:05:10.264Z,99.90
2023-10-15T15:07:17.894Z,99.90
2023-10-15T15:09:25.591Z,99.90
2023-10-15T15:11:33.054Z,99.90
2023-10-15T15:13:42.112Z,99.90
2023-10-15T15:15:49.619Z,99.90
2023-10-15T15:17:57.619Z,99.90
2023-10-15T15:20:07.292Z,99.90
2023-10-15T15:22:15.351Z,99.90
2023-10-15T15:24:24.252Z,99.90
2023-10-15T15:26:31.909Z,99.90
2023-10-15T15:28:41.218Z,99.60
2023-10-15T15:30:50.489Z,99.90
2023-10-15T15:32:58.566Z,99.90
2023-10-15T15:35:07.283Z,99.70
2023-10-15T15:37:15.131Z,99.80
2023-10-15T15:39:22.655Z,99.90
2023-10-15T15:41:34.648Z,98.40
2023-10-15T15:43:42.764Z,97.50
2023-10-15T15:45:50.258Z,97.10
2023-10-15T15:47:57.892Z,96.80
2023-10-15T15:50:05.828Z,96.80
2023-10-15T15:52:13.170Z,96.70
2023-10-15T15:54:21.865Z,96.70
2023-10-15T15:56:29.793Z,96.70
2023-10-15T15:58:37.173Z,96.40
2023-10-15T16:00:48.623Z,96.90
2023-10-15T16:02:56.288Z,97.00
2023-10-15T16:05:04.469Z,96.60
2023-10-15T16:07:12.204Z,96.20
2023-10-15T16:09:20.697Z,96.60
2023-10-15T16:11:28.045Z,96.60
2023-10-15T16:13:36.072Z,96.90
2023-10-15T16:15:45.435Z,96.70
2023-10-15T16:17:53.731Z,96.50
2023-10-15T16:20:01.201Z,96.60
2023-10-15T16:22:08.939Z,96.10
2023-10-15T16:24:16.987Z,96.40
2023-10-15T16:26:25.256Z,96.90
2023-10-15T16:28:33.139Z,96.90
2023-10-15T16:30:39.642Z,96.60
2023-10-15T16:32:48.891Z,96.60
2023-10-15T16:34:57.291Z,97.10
2023-10-15T16:37:04.869Z,97.30
2023-10-15T16:39:19.709Z,97.60
2023-10-15T16:41:27.369Z,98.40
2023-10-15T16:43:34.959Z,98.90
2023-10-15T16:45:42.746Z,97.90
2023-10-15T16:47:52.168Z,97.40
2023-10-15T16:49:59.453Z,97.50
2023-10-15T16:52:07.348Z,97.50
2023-10-15T16:54:14.969Z,97.90
2023-10-15T16:56:23.065Z,97.90
2023-10-15T16:58:31.737Z,97.70
2023-10-15T17:00:41.891Z,97.70
2023-10-15T17:02:51.082Z,98.20
2023-10-15T17:05:00.309Z,97.80
2023-10-15T17:07:07.803Z,98.00
2023-10-15T17:09:15.613Z,97.40
2023-10-15T17:11:23.147Z,97.40
2023-10-15T17:13:30.791Z,98.10
2023-10-15T17:15:38.138Z,97.80
2023-10-15T17:17:46.462Z,97.10
2023-10-15T17:19:55.918Z,97.80
2023-10-15T17:22:03.958Z,97.30
2023-10-15T17:24:12.467Z,96.80
2023-10-15T17:26:20.302Z,96.70
2023-10-15T17:28:28.229Z,97.60
2023-10-15T17:30:38.140Z,97.00
2023-10-15T17:32:44.707Z,96.70
2023-10-15T17:34:54.129Z,97.00
2023-10-15T17:37:07.691Z,96.70
2023-10-15T17:39:27.123Z,96.10
2023-10-15T17:41:35.140Z,95.40
2023-10-15T17:43:42.775Z,94.60
2023-10-15T17:45:52.700Z,94.70
2023-10-15T17:48:02.497Z,94.50
2023-10-15T17:50:12.909Z,94.40
2023-10-15T17:52:20.287Z,95.20
2023-10-15T17:54:26.882Z,97.00
2023-10-15T17:56:36.086Z,96.10
2023-10-15T17:58:44.176Z,96.00
2023-10-15T18:00:52.928Z,96.70
2023-10-15T18:03:01.032Z,95.70
2023-10-15T18:05:09.839Z,94.90
2023-10-15T18:07:19.825Z,94.70
2023-10-15T18:09:27.480Z,95.10
2023-10-15T18:11:36.659Z,95.10
2023-10-15T18:13:44.843Z,96.00
2023-10-15T18:15:52.438Z,96.00
2023-10-15T18:18:00.100Z,95.90
2023-10-15T18:20:08.304Z,96.00
2023-10-15T18:22:15.914Z,95.40
2023-10-15T18:24:25.718Z,95.20
2023-10-15T18:26:33.554Z,95.30
2023-10-15T18:28:42.502Z,95.70
2023-10-15T18:30:50.029Z,95.90
2023-10-15T18:32:57.916Z,95.10
2023-10-15T18:35:06.449Z,94.80
2023-10-15T18:37:14.190Z,94.70
2023-10-15T18:39:22.541Z,94.90
2023-10-15T18:41:32.154Z,94.80
2023-10-15T18:43:39.410Z,95.20
2023-10-15T18:45:49.574Z,96.70
2023-10-15T18:47:57.807Z,97.50
2023-10-15T18:50:05.439Z,97.40
2023-10-15T18:52:13.636Z,96.70
2023-10-15T18:54:21.436Z,97.30
2023-10-15T18:56:32.330Z,98.20
2023-10-15T18:58:40.095Z,98.60
2023-10-15T19:00:48.274Z,99.40
2023-10-15T19:02:56.043Z,99.50
2023-10-15T19:05:03.651Z,99.70
2023-10-15T19:07:15.076Z,99.50
2023-10-15T19:09:22.095Z,99.80
2023-10-15T19:11:32.012Z,99.90
2023-10-15T19:13:39.804Z,99.90
2023-10-15T19:15:56.405Z,99.90
2023-10-15T19:18:04.952Z,99.90
2023-10-15T19:20:14.545Z,99.90
2023-10-15T19:22:22.278Z,99.90
2023-10-15T19:24:30.892Z,99.90
2023-10-15T19:26:40.987Z,99.60
2023-10-15T19:28:48.369Z,99.90
2023-10-15T19:30:56.321Z,99.90
2023-10-15T19:33:03.791Z,99.90
2023-10-15T19:35:12.573Z,99.90
2023-10-15T19:37:19.944Z,99.90
2023-10-15T19:39:28.488Z,99.90
2023-10-15T19:41:35.810Z,99.90
2023-10-15T19:43:44.480Z,99.90
2023-10-15T19:45:52.005Z,99.90
2023-10-15T19:48:00.296Z,99.90
2023-10-15T19:50:08.713Z,99.90
2023-10-15T19:52:19.048Z,99.90
2023-10-15T19:54:26.983Z,99.90
2023-10-15T19:56:35.257Z,99.90
2023-10-15T19:58:45.158Z,99.90
2023-10-15T20:00:53.455Z,99.90
2023-10-15T20:03:01.316Z,99.90
2023-10-15T20:05:10.069Z,99.90
2023-10-15T20:07:17.563Z,99.90
2023-10-15T20:09:25.425Z,99.90
2023-10-15T20:11:32.969Z,99.90
2023-10-15T20:13:40.901Z,99.90
2023-10-15T20:15:51.140Z,99.90
2023-10-15T20:18:00.741Z,99.90
2023-10-15T20:20:10.662Z,99.90
2023-10-15T20:22:19.940Z,99.90
2023-10-15T20:24:27.298Z,99.90
2023-10-15T20:26:35.213Z,99.90
2023-10-15T20:28:42.713Z,99.90
2023-10-15T20:30:52.337Z,99.90
2023-10-15T20:32:59.853Z,99.90
2023-10-15T20:35:10.435Z,99.90
2023-10-15T20:37:18.374Z,99.90
2023-10-15T20:39:27.152Z,99.90
2023-10-15T20:41:34.431Z,99.90
2023-10-15T20:43:43.085Z,99.90
2023-10-15T20:45:50.915Z,99.90
2023-10-15T20:47:58.963Z,99.90
2023-10-15T20:50:10.018Z,99.90
2023-10-15T20:52:17.768Z,99.90
2023-10-15T20:54:25.516Z,99.90
2023-10-15T20:56:33.311Z,99.90
2023-10-15T20:58:40.641Z,99.90
2023-10-15T21:00:48.937Z,99.90
2023-10-15T21:03:01.793Z,99.90
2023-10-15T21:05:11.680Z,99.90
2023-10-15T21:07:19.460Z,99.90
2023-10-15T21:09:27.183Z,99.90
2023-10-15T21:11:33.283Z,99.90
2023-10-15T21:13:41.765Z,99.90
2023-10-15T21:15:49.149Z,99.90
2023-10-15T21:17:58.821Z,99.90
2023-10-15T21:20:09.954Z,99.90
2023-10-15T21:22:17.550Z,99.90
2023-10-15T21:24:25.005Z,99.90
2023-10-15T21:26:33.004Z,99.90
2023-10-15T21:28:40.390Z,99.90
2023-10-15T21:30:47.869Z,99.90
2023-10-15T21:32:57.089Z,99.90
2023-10-15T21:35:04.845Z,99.90
2023-10-15T21:37:12.809Z,99.90
2023-10-15T21:39:24.570Z,99.90
2023-10-15T21:41:32.006Z,99.90
2023-10-15T21:43:39.651Z,99.90
2023-10-15T21:45:50.205Z,99.90
2023-10-15T21:47:58.299Z,99.90
2023-10-15T21:50:06.094Z,99.90
2023-10-15T21:52:13.961Z,99.90
2023-10-15T21:54:21.324Z,99.90
2023-10-15T21:56:28.995Z,99.90
2023-10-15T21:58:36.323Z,99.90
2023-10-15T22:00:52.274Z,99.90
2023-10-15T22:03:01.806Z,99.90
2023-10-15T22:05:11.220Z,99.90
2023-10-15T22:07:18.550Z,99.90
2023-10-15T22:09:27.222Z,99.90
2023-10-15T22:11:34.653Z,99.90
2023-10-15T22:13:42.481Z,99.90
2023-10-15T22:15:54.134Z,99.90
2023-10-15T22:18:05.472Z,99.90
2023-10-15T22:20:21.778Z,99.90
2023-10-15T22:22:29.624Z,99.90
2023-10-15T22:24:42.280Z,99.90
2023-10-15T22:26:50.920Z,99.90
2023-10-15T22:28:59.832Z,99.90
2023-10-15T22:31:09.944Z,99.90
2023-10-15T22:33:19.155Z,99.90
2023-10-15T22:35:26.946Z,99.90
2023-10-15T22:37:34.370Z,99.90
2023-10-15T22:39:42.190Z,99.90
2023-10-15T22:41:49.566Z,99.90
2023-10-15T22:43:57.366Z,99.90
2023-10-15T22:46:07.128Z,99.90
2023-10-15T22:48:15.023Z,99.90
2023-10-15T22:50:24.854Z,99.90
2023-10-15T22:52:32.598Z,99.90
2023-10-15T22:54:40.386Z,99.90
2023-10-15T22:56:47.700Z,99.90
2023-10-15T22:58:55.127Z,99.90
2023-10-15T23:01:02.643Z,99.90
2023-10-15T23:03:11.863Z,99.90
2023-10-15T23:05:17.967Z,99.90
2023-10-15T23:07:27.466Z,99.90
2023-10-15T23:09:35.051Z,99.90
2023-10-15T23:11:42.772Z,99.90
2023-10-15T23:13:49.854Z,99.90
2023-10-15T23:15:57.476Z,99.90
2023-10-15T23:18:08.596Z,99.90
2023-10-15T23:20:29.330Z,99.90
2023-10-15T23:22:38.250Z,99.90
2023-10-15T23:24:46.617Z,99.90
2023-10-15T23:26:53.948Z,99.90
2023-10-15T23:29:02.611Z,99.90
2023-10-15T23:31:12.770Z,99.90
2023-10-15T23:33:22.087Z,99.90
2023-10-15T23:35:30.314Z,99.90
2023-10-15T23:37:40.561Z,99.90
2023-10-15T23:39:47.982Z,99.90
2023-10-15T23:41:55.802Z,99.90
2023-10-15T23:44:02.977Z,99.90
2023-10-15T23:46:10.917Z,99.90
2023-10-15T23:48:19.643Z,99.90
2023-10-15T23:50:33.277Z,99.90
2023-10-15T23:52:45.789Z,99.90
2023-10-15T23:54:56.750Z,99.90
2023-10-15T23:57:05.379Z,99.90
2023-10-15T23:59:13.104Z,99.90
